createdAt,value
2017-03-18T00:00:02.000Z,25.48
2017-03-18T00:01:11.942Z,25.59
2017-03-18T00:02:22.204Z,25.69
2017-03-18T00:03:32.475Z,25.39
2017-03-18T00:04:42.730Z,25.48
2017-03-18T00:05:52.676Z,25.58
2017-03-18T00:07:02.615Z,25.78
2017-03-18T00:08:12.608Z,25.49
2017-03-18T00:09:22.559Z,25.59
2017-03-18T00:10:32.504Z,25.79
2017-03-18T00:11:42.448Z,26.07
2017-03-18T00:12:52.392Z,25.59
2017-03-18T00:14:02.654Z,25.68
2017-03-18T00:15:12.912Z,25.87
2017-03-18T00:16:22.854Z,25.29
2017-03-18T00:17:32.796Z,25.59
2017-03-18T00:18:43.058Z,25.58
2017-03-18T00:19:53.012Z,26.06
2017-03-18T00:21:03.279Z,25.68
2017-03-18T00:22:13.225Z,25.87
2017-03-18T00:23:23.177Z,25.69
2017-03-18T00:24:33.124Z,25.88
2017-03-18T00:25:42.753Z,25.58
2017-03-18T00:26:52.694Z,25.88
2017-03-18T00:28:02.008Z,26.17
2017-03-18T00:29:11.642Z,25.58
2017-03-18T00:30:21.900Z,25.31
2017-03-18T00:31:31.843Z,25.49
2017-03-18T00:32:42.104Z,25.49
2017-03-18T00:33:52.049Z,25.58
2017-03-18T00:35:02.310Z,25.59
2017-03-18T00:36:11.940Z,25.4
2017-03-18T00:37:22.197Z,25.48
2017-03-18T00:38:31.522Z,25.69
2017-03-18T00:39:41.467Z,25.59
2017-03-18T00:40:51.414Z,25.48
2017-03-18T00:42:01.358Z,26.06
2017-03-18T00:43:11.307Z,25.58
2017-03-18T00:44:21.261Z,25.49
2017-03-18T00:45:31.521Z,25.58
2017-03-18T00:46:41.500Z,25.96
2017-03-18T00:47:51.447Z,25.58
2017-03-18T00:49:01.399Z,25.58
2017-03-18T00:50:11.658Z,25.58
2017-03-18T00:51:21.915Z,25.96
2017-03-18T00:52:31.866Z,25.78
2017-03-18T00:53:41.815Z,25.79
2017-03-18T00:54:51.454Z,25.88
2017-03-18T00:56:01.100Z,25.69
2017-03-18T00:57:11.046Z,25.79
2017-03-18T00:58:20.989Z,25.68
2017-03-18T00:59:30.934Z,25.79
2017-03-18T01:00:40.874Z,25.58
2017-03-18T01:01:50.817Z,25.58
2017-03-18T01:03:01.076Z,25.68
2017-03-18T01:04:11.024Z,25.79
2017-03-18T01:05:20.656Z,25.69
2017-03-18T01:06:30.908Z,25.58
2017-03-18T01:07:41.171Z,25.69
2017-03-18T01:08:51.476Z,25.59
2017-03-18T01:10:01.426Z,26.06
2017-03-18T01:11:11.679Z,25.69
2017-03-18T01:12:21.314Z,25.68
2017-03-18T01:13:31.263Z,25.68
2017-03-18T01:14:41.532Z,25.58
2017-03-18T01:15:51.788Z,25.87
2017-03-18T01:17:02.046Z,25.87
2017-03-18T01:18:12.300Z,25.88
2017-03-18T01:19:21.935Z,25.58
2017-03-18T01:20:31.880Z,25.69
2017-03-18T01:21:41.824Z,25.29
2017-03-18T01:22:52.121Z,25.59
2017-03-18T01:24:02.391Z,25.49
2017-03-18T01:25:12.646Z,25.49
2017-03-18T01:26:22.589Z,25.31
2017-03-18T01:27:32.536Z,25.39
2017-03-18T01:28:42.521Z,25.21
2017-03-18T01:29:52.469Z,25.4
2017-03-18T01:31:02.415Z,25.11
2017-03-18T01:32:12.044Z,25.2
2017-03-18T01:33:22.018Z,24.91
2017-03-18T01:34:32.280Z,24.62
2017-03-18T01:35:41.907Z,24.62
2017-03-18T01:36:52.160Z,24.91
2017-03-18T01:38:02.103Z,24.62
2017-03-18T01:39:12.051Z,24.62
2017-03-18T01:40:22.328Z,24.91
2017-03-18T01:41:32.580Z,25.39
2017-03-18T01:42:42.217Z,25.1
2017-03-18T01:43:52.512Z,25.01
2017-03-18T01:45:02.782Z,24.91
2017-03-18T01:46:12.415Z,24.81
2017-03-18T01:47:22.360Z,25.1
2017-03-18T01:48:32.303Z,25.01
2017-03-18T01:49:42.277Z,24.62
2017-03-18T01:50:52.535Z,24.71
2017-03-18T01:52:02.469Z,24.62
2017-03-18T01:53:12.728Z,24.81
2017-03-18T01:54:22.677Z,24.81
2017-03-18T01:55:32.936Z,25.2
2017-03-18T01:56:43.194Z,25.39
2017-03-18T01:57:53.138Z,25.29
2017-03-18T01:59:03.410Z,25.39
2017-03-18T02:00:13.360Z,25.29
2017-03-18T02:01:23.302Z,25.68
2017-03-18T02:02:33.242Z,25.58
2017-03-18T02:03:42.888Z,25.48
2017-03-18T02:04:52.831Z,25.58
2017-03-18T02:06:02.780Z,25.39
2017-03-18T02:07:12.727Z,25.48
2017-03-18T02:08:22.990Z,25.48
2017-03-18T02:09:33.250Z,25.87
2017-03-18T02:10:42.884Z,25.48
2017-03-18T02:11:53.136Z,25.58
2017-03-18T02:13:03.388Z,25.78
2017-03-18T02:14:12.394Z,25.87
2017-03-18T02:15:22.345Z,25.87
2017-03-18T02:16:32.593Z,26.16
2017-03-18T02:17:42.851Z,26.25
2017-03-18T02:18:52.491Z,26.25
2017-03-18T02:20:02.446Z,26.16
2017-03-18T02:21:12.073Z,26.06
2017-03-18T02:22:22.016Z,25.87
2017-03-18T02:23:31.961Z,26.06
2017-03-18T02:24:41.917Z,26.06
2017-03-18T02:25:52.199Z,26.16
2017-03-18T02:27:02.138Z,26.25
2017-03-18T02:28:12.404Z,26.25
2017-03-18T02:29:22.353Z,26.16
2017-03-18T02:30:32.299Z,26.35
2017-03-18T02:31:42.557Z,26.16
2017-03-18T02:32:52.504Z,26.16
2017-03-18T02:34:02.754Z,26.35
2017-03-18T02:35:12.693Z,25.96
2017-03-18T02:36:22.010Z,26.35
2017-03-18T02:37:31.950Z,26.35
2017-03-18T02:38:42.210Z,26.64
2017-03-18T02:39:52.487Z,26.64
2017-03-18T02:41:02.453Z,26.45
2017-03-18T02:42:12.706Z,26.54
2017-03-18T02:43:22.370Z,26.54
2017-03-18T02:44:32.314Z,26.83
2017-03-18T02:45:42.257Z,26.54
2017-03-18T02:46:52.515Z,26.73
2017-03-18T02:48:02.457Z,26.93
2017-03-18T02:49:12.092Z,26.73
2017-03-18T02:50:21.722Z,26.93
2017-03-18T02:51:31.975Z,26.93
2017-03-18T02:52:41.291Z,26.93
2017-03-18T02:53:51.247Z,26.93
2017-03-18T02:55:01.510Z,26.54
2017-03-18T02:56:11.764Z,26.64
2017-03-18T02:57:21.706Z,26.64
2017-03-18T02:58:31.957Z,26.54
2017-03-18T02:59:41.278Z,26.64
2017-03-18T03:00:51.536Z,26.93
2017-03-18T03:02:01.481Z,27.31
2017-03-18T03:03:11.423Z,26.93
2017-03-18T03:04:21.058Z,26.83
2017-03-18T03:05:31.323Z,27.12
2017-03-18T03:06:41.258Z,26.93
2017-03-18T03:07:51.199Z,27.12
2017-03-18T03:09:01.464Z,27.31
2017-03-18T03:10:11.726Z,26.73
2017-03-18T03:11:21.040Z,27.02
2017-03-18T03:12:31.292Z,27.02
2017-03-18T03:13:41.588Z,26.83
2017-03-18T03:14:51.852Z,26.94
2017-03-18T03:16:01.807Z,26.56
2017-03-18T03:17:11.751Z,26.27
2017-03-18T03:18:22.019Z,26.36
2017-03-18T03:19:31.965Z,26.36
2017-03-18T03:20:42.225Z,26.17
2017-03-18T03:21:51.857Z,26.17
2017-03-18T03:23:01.487Z,26.46
2017-03-18T03:24:11.764Z,26.17
2017-03-18T03:25:21.750Z,26.17
2017-03-18T03:26:31.694Z,26.17
2017-03-18T03:27:41.958Z,26.07
2017-03-18T03:28:51.596Z,25.98
2017-03-18T03:30:01.862Z,26.17
2017-03-18T03:31:11.806Z,26.27
2017-03-18T03:32:22.076Z,26.07
2017-03-18T03:33:32.339Z,26.27
2017-03-18T03:34:42.601Z,26.27
2017-03-18T03:35:52.886Z,26.17
2017-03-18T03:37:03.144Z,26.27
2017-03-18T03:38:12.466Z,26.07
2017-03-18T03:39:22.456Z,26.07
2017-03-18T03:40:32.407Z,26.07
2017-03-18T03:41:42.662Z,26.27
2017-03-18T03:42:52.941Z,26.27
2017-03-18T03:44:02.596Z,26.07
2017-03-18T03:45:12.545Z,26.56
2017-03-18T03:46:22.490Z,26.46
2017-03-18T03:47:32.117Z,26.56
2017-03-18T03:48:42.064Z,26.17
2017-03-18T03:49:52.018Z,26.56
2017-03-18T03:51:01.966Z,26.46
2017-03-18T03:52:12.236Z,26.65
2017-03-18T03:53:22.493Z,26.17
2017-03-18T03:54:32.118Z,26.17
2017-03-18T03:55:42.374Z,26.27
2017-03-18T03:56:52.005Z,26.27
2017-03-18T03:58:02.270Z,26.27
2017-03-18T03:59:12.545Z,26.36
2017-03-18T04:00:22.801Z,26.27
2017-03-18T04:01:33.053Z,26.27
2017-03-18T04:02:43.002Z,26.36
2017-03-18T04:03:53.273Z,26.36
2017-03-18T04:05:03.219Z,26.36
2017-03-18T04:06:13.162Z,26.27
2017-03-18T04:07:22.818Z,26.36
2017-03-18T04:08:32.766Z,26.27
2017-03-18T04:09:43.028Z,26.46
2017-03-18T04:10:53.284Z,26.36
2017-03-18T04:12:03.549Z,26.27
2017-03-18T04:13:13.806Z,26.27
2017-03-18T04:14:23.443Z,26.27
2017-03-18T04:15:33.386Z,26.17
2017-03-18T04:16:43.642Z,26.36
2017-03-18T04:17:53.898Z,26.27
2017-03-18T04:19:03.845Z,26.56
2017-03-18T04:20:14.124Z,26.17
2017-03-18T04:21:23.443Z,26.27
2017-03-18T04:22:33.700Z,26.27
2017-03-18T04:23:43.992Z,26.17
2017-03-18T04:24:53.956Z,26.27
2017-03-18T04:26:04.219Z,26.25
2017-03-18T04:27:14.157Z,26.36
2017-03-18T04:28:23.797Z,26.25
2017-03-18T04:29:33.747Z,26.45
2017-03-18T04:30:43.728Z,26.36
2017-03-18T04:31:53.988Z,26.17
2017-03-18T04:33:04.252Z,26.25
2017-03-18T04:34:14.520Z,25.96
2017-03-18T04:35:24.468Z,26.06
2017-03-18T04:36:34.750Z,25.96
2017-03-18T04:37:44.725Z,26.35
2017-03-18T04:38:54.677Z,26.45
2017-03-18T04:40:04.657Z,26.36
2017-03-18T04:41:14.291Z,26.25
2017-03-18T04:42:23.916Z,26.35
2017-03-18T04:43:34.180Z,26.16
2017-03-18T04:44:44.126Z,26.35
2017-03-18T04:45:54.068Z,26.27
2017-03-18T04:47:04.010Z,26.36
2017-03-18T04:48:13.647Z,26.73
2017-03-18T04:49:23.601Z,26.64
2017-03-18T04:50:33.877Z,26.25
2017-03-18T04:51:44.130Z,26.25
2017-03-18T04:52:54.067Z,26.35
2017-03-18T04:54:04.333Z,26.25
2017-03-18T04:55:14.279Z,26.06
2017-03-18T04:56:24.225Z,26.25
2017-03-18T04:57:34.478Z,26.36
2017-03-18T04:58:44.440Z,26.36
2017-03-18T04:59:54.107Z,26.36
2017-03-18T05:01:04.060Z,26.27
2017-03-18T05:02:14.348Z,26.25
2017-03-18T05:03:23.981Z,26.25
2017-03-18T05:04:33.614Z,26.25
2017-03-18T05:05:43.245Z,26.25
2017-03-18T05:06:52.872Z,26.27
2017-03-18T05:08:02.820Z,26.17
2017-03-18T05:09:13.084Z,26.17
2017-03-18T05:10:23.031Z,26.17
2017-03-18T05:11:32.659Z,26.27
2017-03-18T05:12:42.918Z,26.45
2017-03-18T05:13:53.182Z,26.65
2017-03-18T05:15:03.484Z,26.56
2017-03-18T05:16:13.740Z,26.56
2017-03-18T05:17:23.676Z,26.64
2017-03-18T05:18:33.621Z,26.73
2017-03-18T05:19:43.886Z,26.54
2017-03-18T05:20:53.209Z,26.73
2017-03-18T05:22:03.162Z,26.93
2017-03-18T05:23:12.790Z,26.64
2017-03-18T05:24:21.797Z,26.83
2017-03-18T05:25:32.052Z,26.73
2017-03-18T05:26:41.997Z,26.54
2017-03-18T05:27:51.625Z,26.27
2017-03-18T05:29:01.576Z,26.27
2017-03-18T05:30:11.865Z,26.17
2017-03-18T05:31:20.871Z,26.36
2017-03-18T05:32:31.129Z,26.36
2017-03-18T05:33:40.800Z,26.17
2017-03-18T05:34:50.755Z,26.27
2017-03-18T05:36:01.013Z,26.27
2017-03-18T05:37:10.643Z,26.46
2017-03-18T05:38:20.281Z,26.27
2017-03-18T05:39:30.231Z,26.56
2017-03-18T05:40:40.486Z,26.56
2017-03-18T05:41:50.781Z,26.65
2017-03-18T05:43:01.037Z,26.65
2017-03-18T05:44:11.292Z,26.84
2017-03-18T05:45:21.240Z,26.75
2017-03-18T05:46:31.498Z,27.24
2017-03-18T05:47:41.761Z,26.65
2017-03-18T05:48:52.024Z,26.84
2017-03-18T05:50:02.290Z,26.56
2017-03-18T05:51:12.229Z,26.94
2017-03-18T05:52:21.547Z,26.94
2017-03-18T05:53:31.834Z,26.75
2017-03-18T05:54:42.091Z,26.75
2017-03-18T05:55:51.722Z,26.75
2017-03-18T05:57:01.671Z,27.04
2017-03-18T05:58:11.628Z,27.23
2017-03-18T05:59:21.897Z,27.23
2017-03-18T06:00:31.841Z,27.04
2017-03-18T06:01:42.099Z,26.94
2017-03-18T06:02:52.050Z,26.65
2017-03-18T06:04:02.318Z,26.65
2017-03-18T06:05:11.942Z,26.65
2017-03-18T06:06:21.886Z,26.94
2017-03-18T06:07:32.140Z,27.04
2017-03-18T06:08:42.410Z,27.13
2017-03-18T06:09:52.355Z,27.04
2017-03-18T06:11:02.617Z,26.65
2017-03-18T06:12:12.247Z,26.75
2017-03-18T06:13:21.914Z,26.65
2017-03-18T06:14:32.174Z,27.04
2017-03-18T06:15:42.116Z,26.94
2017-03-18T06:16:52.074Z,26.75
2017-03-18T06:18:02.026Z,27.04
2017-03-18T06:19:11.973Z,26.84
2017-03-18T06:20:22.232Z,26.94
2017-03-18T06:21:32.486Z,27.13
2017-03-18T06:22:42.424Z,26.84
2017-03-18T06:23:52.368Z,26.75
2017-03-18T06:25:02.325Z,26.56
2017-03-18T06:26:12.589Z,27.13
2017-03-18T06:27:22.848Z,26.94
2017-03-18T06:28:32.479Z,27.04
2017-03-18T06:29:42.782Z,26.94
2017-03-18T06:30:52.729Z,27.13
2017-03-18T06:32:02.669Z,26.75
2017-03-18T06:33:12.927Z,26.75
2017-03-18T06:34:22.877Z,27.04
2017-03-18T06:35:32.820Z,26.94
2017-03-18T06:36:43.078Z,27.23
2017-03-18T06:37:53.020Z,27.42
2017-03-18T06:39:02.966Z,27.42
2017-03-18T06:40:13.227Z,27.33
2017-03-18T06:41:23.477Z,27.42
2017-03-18T06:42:33.109Z,26.65
2017-03-18T06:43:43.398Z,26.94
2017-03-18T06:44:53.347Z,27.13
2017-03-18T06:46:02.981Z,27.13
2017-03-18T06:47:13.245Z,27.33
2017-03-18T06:48:22.879Z,27.05
2017-03-18T06:49:32.826Z,27.13
2017-03-18T06:50:42.765Z,26.94
2017-03-18T06:51:52.705Z,26.94
2017-03-18T06:53:02.652Z,27.13
2017-03-18T06:54:12.909Z,27.13
2017-03-18T06:55:22.868Z,27.33
2017-03-18T06:56:33.122Z,27.13
2017-03-18T06:57:43.377Z,27.44
2017-03-18T06:58:53.643Z,27.13
2017-03-18T07:00:03.903Z,27.13
2017-03-18T07:01:14.162Z,27.13
2017-03-18T07:02:24.419Z,26.95
2017-03-18T07:03:34.363Z,27.13
2017-03-18T07:04:44.618Z,26.65
2017-03-18T07:05:54.558Z,27.04
2017-03-18T07:07:04.500Z,27.15
2017-03-18T07:08:14.448Z,26.95
2017-03-18T07:09:24.387Z,26.84
2017-03-18T07:10:34.338Z,26.94
2017-03-18T07:11:44.281Z,27.33
2017-03-18T07:12:54.558Z,26.94
2017-03-18T07:14:04.823Z,27.04
2017-03-18T07:15:14.453Z,27.04
2017-03-18T07:16:24.393Z,27.04
2017-03-18T07:17:34.331Z,27.05
2017-03-18T07:18:44.273Z,27.42
2017-03-18T07:19:54.534Z,27.51
2017-03-18T07:21:04.164Z,27.61
2017-03-18T07:22:14.418Z,27.42
2017-03-18T07:23:24.047Z,27.23
2017-03-18T07:24:33.359Z,27.13
2017-03-18T07:25:43.303Z,27.15
2017-03-18T07:26:53.554Z,27.33
2017-03-18T07:28:03.497Z,27.24
2017-03-18T07:29:13.446Z,27.23
2017-03-18T07:30:23.705Z,27.42
2017-03-18T07:31:33.963Z,27.13
2017-03-18T07:32:44.222Z,27.34
2017-03-18T07:33:53.852Z,27.42
2017-03-18T07:35:03.810Z,27.71
2017-03-18T07:36:14.064Z,27.51
2017-03-18T07:37:24.011Z,27.33
2017-03-18T07:38:34.273Z,27.42
2017-03-18T07:39:44.540Z,27.42
2017-03-18T07:40:54.828Z,27.71
2017-03-18T07:42:05.087Z,27.91
2017-03-18T07:43:15.032Z,28.29
2017-03-18T07:44:24.662Z,28.77
2017-03-18T07:45:34.605Z,28.86
2017-03-18T07:46:44.867Z,28
2017-03-18T07:47:54.497Z,28.86
2017-03-18T07:49:04.129Z,28.67
2017-03-18T07:50:14.426Z,28.58
2017-03-18T07:51:24.372Z,28.96
2017-03-18T07:52:34.633Z,28.86
2017-03-18T07:53:44.588Z,29.15
2017-03-18T07:54:54.538Z,29.06
2017-03-18T07:56:04.170Z,29.25
2017-03-18T07:57:14.112Z,28.19
2017-03-18T07:58:24.052Z,28.96
2017-03-18T07:59:34.312Z,28.86
2017-03-18T08:00:44.251Z,28.86
2017-03-18T08:01:54.192Z,28.96
2017-03-18T08:03:03.817Z,28.96
2017-03-18T08:04:14.083Z,29.15
2017-03-18T08:05:23.717Z,29.06
2017-03-18T08:06:33.977Z,29.15
2017-03-18T08:07:43.925Z,29.15
2017-03-18T08:08:54.191Z,28.67
2017-03-18T08:10:04.455Z,28.77
2017-03-18T08:11:14.082Z,28.67
2017-03-18T08:12:23.709Z,28.2
2017-03-18T08:13:33.654Z,28.67
2017-03-18T08:14:43.917Z,29.15
2017-03-18T08:15:54.181Z,29.15
2017-03-18T08:17:04.441Z,29.07
2017-03-18T08:18:14.385Z,29.35
2017-03-18T08:19:24.338Z,28.96
2017-03-18T08:20:34.282Z,28.96
2017-03-18T08:21:44.225Z,29.27
2017-03-18T08:22:54.483Z,28.78
2017-03-18T08:24:04.125Z,29.27
2017-03-18T08:25:13.761Z,29.06
2017-03-18T08:26:23.699Z,29.17
2017-03-18T08:27:33.958Z,29.25
2017-03-18T08:28:44.223Z,28.77
2017-03-18T08:29:54.179Z,29.36
2017-03-18T08:31:03.848Z,29.44
2017-03-18T08:32:14.110Z,29.35
2017-03-18T08:33:23.742Z,29.44
2017-03-18T08:34:33.730Z,29.44
2017-03-18T08:35:43.986Z,29.25
2017-03-18T08:36:54.240Z,29.44
2017-03-18T08:38:03.879Z,29.46
2017-03-18T08:39:14.154Z,29.44
2017-03-18T08:40:24.415Z,29.35
2017-03-18T08:41:34.355Z,29.44
2017-03-18T08:42:43.990Z,28.86
2017-03-18T08:43:53.946Z,29.35
2017-03-18T08:45:03.262Z,29.25
2017-03-18T08:46:13.519Z,29.36
2017-03-18T08:47:23.462Z,29.54
2017-03-18T08:48:32.782Z,29.46
2017-03-18T08:49:43.042Z,29.44
2017-03-18T08:50:52.993Z,29.36
2017-03-18T08:52:02.618Z,29.35
2017-03-18T08:53:12.873Z,29.27
2017-03-18T08:54:22.511Z,29.46
2017-03-18T08:55:32.770Z,29.36
2017-03-18T08:56:42.715Z,29.46
2017-03-18T08:57:52.664Z,29.36
2017-03-18T08:59:02.617Z,29.17
2017-03-18T09:00:12.566Z,29.55
2017-03-18T09:01:22.516Z,29.36
2017-03-18T09:02:32.147Z,29.46
2017-03-18T09:03:41.463Z,29.36
2017-03-18T09:04:51.095Z,29.46
2017-03-18T09:06:01.044Z,29.27
2017-03-18T09:07:10.997Z,29.46
2017-03-18T09:08:20.941Z,29.65
2017-03-18T09:09:30.581Z,29.36
2017-03-18T09:10:40.527Z,29.36
2017-03-18T09:11:50.477Z,29.46
2017-03-18T09:13:00.737Z,29.36
2017-03-18T09:14:10.688Z,29.27
2017-03-18T09:15:20.636Z,29.46
2017-03-18T09:16:30.265Z,29.46
2017-03-18T09:17:40.521Z,29.46
2017-03-18T09:18:50.782Z,29.55
2017-03-18T09:20:00.727Z,29.65
2017-03-18T09:21:10.982Z,29.55
2017-03-18T09:22:20.612Z,29.36
2017-03-18T09:23:30.875Z,29.65
2017-03-18T09:24:40.502Z,29.55
2017-03-18T09:25:50.134Z,29.65
2017-03-18T09:26:59.760Z,29.46
2017-03-18T09:28:10.020Z,29.55
2017-03-18T09:29:19.970Z,29.07
2017-03-18T09:30:29.915Z,29.55
2017-03-18T09:31:40.182Z,29.55
2017-03-18T09:32:50.126Z,29.65
2017-03-18T09:33:59.774Z,29.46
2017-03-18T09:35:09.410Z,29.74
2017-03-18T09:36:19.361Z,29.36
2017-03-18T09:37:29.618Z,29.27
2017-03-18T09:38:39.882Z,29.74
2017-03-18T09:39:49.834Z,29.65
2017-03-18T09:40:59.781Z,29.17
2017-03-18T09:42:09.406Z,29.55
2017-03-18T09:43:19.347Z,29.46
2017-03-18T09:44:29.313Z,29.36
2017-03-18T09:45:38.972Z,29.46
2017-03-18T09:46:48.284Z,29.36
2017-03-18T09:47:58.542Z,29.27
2017-03-18T09:49:08.497Z,29.46
2017-03-18T09:50:18.763Z,29.55
2017-03-18T09:51:29.016Z,29.74
2017-03-18T09:52:38.965Z,29.55
2017-03-18T09:53:48.617Z,29.27
2017-03-18T09:54:58.567Z,29.36
2017-03-18T09:56:08.834Z,29.84
2017-03-18T09:57:19.096Z,29.84
2017-03-18T09:58:28.729Z,29.46
2017-03-18T09:59:38.679Z,30.04
2017-03-18T10:00:48.619Z,29.55
2017-03-18T10:01:58.876Z,30.13
2017-03-18T10:03:08.824Z,29.84
2017-03-18T10:04:18.775Z,29.55
2017-03-18T10:05:28.407Z,30.13
2017-03-18T10:06:38.349Z,30.04
2017-03-18T10:07:48.603Z,30.04
2017-03-18T10:08:58.877Z,30.04
2017-03-18T10:10:08.513Z,30.04
2017-03-18T10:11:18.459Z,29.27
2017-03-18T10:12:28.103Z,30.04
2017-03-18T10:13:38.367Z,30.04
2017-03-18T10:14:48.639Z,29.55
2017-03-18T10:15:58.589Z,29.17
2017-03-18T10:17:08.222Z,29.84
2017-03-18T10:18:18.477Z,30.04
2017-03-18T10:19:28.111Z,30.04
2017-03-18T10:20:38.363Z,30.04
2017-03-18T10:21:47.989Z,30.04
2017-03-18T10:22:57.618Z,30.04
2017-03-18T10:24:07.890Z,30.13
2017-03-18T10:25:18.153Z,30.04
2017-03-18T10:26:27.789Z,29.55
2017-03-18T10:27:38.050Z,30.04
2017-03-18T10:28:48.003Z,30.13
2017-03-18T10:29:57.952Z,30.04
2017-03-18T10:31:07.583Z,30.04
2017-03-18T10:32:17.841Z,30.04
2017-03-18T10:33:27.476Z,30.04
2017-03-18T10:34:37.423Z,30.13
2017-03-18T10:35:47.683Z,29.94
2017-03-18T10:36:57.659Z,29.74
2017-03-18T10:38:07.919Z,30.04
2017-03-18T10:39:17.872Z,29.74
2017-03-18T10:40:28.138Z,29.94
2017-03-18T10:41:38.402Z,30.42
2017-03-18T10:42:48.659Z,30.13
2017-03-18T10:43:58.921Z,30.22
2017-03-18T10:45:08.238Z,30.42
2017-03-18T10:46:18.181Z,30.22
2017-03-18T10:47:28.133Z,30.32
2017-03-18T10:48:38.398Z,30.22
2017-03-18T10:49:47.714Z,30.04
2017-03-18T10:50:57.662Z,30.22
2017-03-18T10:52:07.918Z,30.13
2017-03-18T10:53:18.186Z,29.84
2017-03-18T10:54:27.822Z,30.13
2017-03-18T10:55:38.080Z,30.13
2017-03-18T10:56:47.706Z,30.32
2017-03-18T10:57:57.651Z,30.22
2017-03-18T10:59:07.288Z,30.22
2017-03-18T11:00:17.235Z,30.13
2017-03-18T11:01:27.498Z,30.22
2017-03-18T11:02:37.439Z,30.13
2017-03-18T11:03:47.387Z,30.13
2017-03-18T11:04:57.680Z,30.42
2017-03-18T11:06:07.634Z,30.22
2017-03-18T11:07:17.575Z,30.22
2017-03-18T11:08:27.830Z,30.04
2017-03-18T11:09:37.464Z,29.95
2017-03-18T11:10:47.721Z,30.32
2017-03-18T11:11:57.352Z,30.04
2017-03-18T11:13:07.615Z,30.13
2017-03-18T11:14:17.605Z,30.04
2017-03-18T11:15:27.251Z,30.42
2017-03-18T11:16:37.511Z,30.42
2017-03-18T11:17:47.772Z,30.13
2017-03-18T11:18:57.408Z,30.42
2017-03-18T11:20:07.675Z,30.34
2017-03-18T11:21:17.304Z,30.13
2017-03-18T11:22:26.946Z,30.22
2017-03-18T11:23:36.892Z,30.24
2017-03-18T11:24:46.534Z,30.22
2017-03-18T11:25:56.798Z,30.22
2017-03-18T11:27:06.743Z,30.24
2017-03-18T11:28:16.693Z,30.15
2017-03-18T11:29:26.642Z,30.24
2017-03-18T11:30:36.273Z,30.22
2017-03-18T11:31:45.902Z,30.05
2017-03-18T11:32:55.546Z,30.34
2017-03-18T11:34:05.484Z,30.24
2017-03-18T11:35:15.431Z,29.86
2017-03-18T11:36:25.370Z,30.24
2017-03-18T11:37:35.336Z,30.15
2017-03-18T11:38:45.288Z,30.24
2017-03-18T11:39:55.246Z,30.15
2017-03-18T11:41:05.198Z,30.24
2017-03-18T11:42:15.455Z,30.15
2017-03-18T11:43:25.081Z,30.24
2017-03-18T11:44:34.709Z,30.34
2017-03-18T11:45:44.644Z,30.73
2017-03-18T11:46:54.586Z,30.34
2017-03-18T11:48:04.848Z,30.04
2017-03-18T11:49:14.806Z,30.43
2017-03-18T11:50:24.759Z,30.63
2017-03-18T11:51:34.704Z,30.43
2017-03-18T11:52:44.645Z,30.43
2017-03-18T11:53:54.905Z,30.63
2017-03-18T11:55:04.851Z,30.63
2017-03-18T11:56:14.792Z,30.73
2017-03-18T11:57:24.421Z,30.53
2017-03-18T11:58:34.422Z,30.34
2017-03-18T11:59:44.684Z,31.21
2017-03-18T12:00:54.938Z,30.53
2017-03-18T12:02:04.884Z,31.11
2017-03-18T12:03:14.826Z,30.73
2017-03-18T12:04:25.089Z,30.91
2017-03-18T12:05:34.744Z,31.98
2017-03-18T12:06:44.694Z,30.82
2017-03-18T12:07:54.958Z,31.01
2017-03-18T12:09:04.914Z,31.21
2017-03-18T12:10:15.177Z,31.21
2017-03-18T12:11:25.525Z,30.91
2017-03-18T12:12:35.280Z,31.59
2017-03-18T12:13:45.288Z,31.4
2017-03-18T12:14:55.244Z,31.59
2017-03-18T12:16:04.879Z,31.4
2017-03-18T12:17:15.178Z,31.49
2017-03-18T12:18:24.813Z,31.59
2017-03-18T12:19:34.764Z,31.49
2017-03-18T12:20:44.707Z,31.4
2017-03-18T12:21:54.966Z,30.91
2017-03-18T12:23:04.912Z,31.21
2017-03-18T12:24:14.550Z,31.59
2017-03-18T12:25:24.499Z,31.4
2017-03-18T12:26:34.130Z,31.21
2017-03-18T12:27:43.764Z,31.59
2017-03-18T12:28:54.029Z,31.88
2017-03-18T12:30:03.663Z,31.49
2017-03-18T12:31:13.933Z,31.59
2017-03-18T12:32:23.880Z,31.59
2017-03-18T12:33:33.511Z,31.69
2017-03-18T12:34:43.143Z,31.59
2017-03-18T12:35:52.770Z,31.78
2017-03-18T12:37:02.731Z,31.59
2017-03-18T12:38:12.994Z,31.69
2017-03-18T12:39:22.953Z,31.59
2017-03-18T12:40:32.591Z,31.3
2017-03-18T12:41:42.226Z,31.69
2017-03-18T12:42:51.855Z,31.4
2017-03-18T12:44:02.119Z,31.98
2017-03-18T12:45:12.417Z,31.59
2017-03-18T12:46:22.049Z,31.59
2017-03-18T12:47:32.004Z,31.59
2017-03-18T12:48:41.951Z,31.3
2017-03-18T12:49:52.211Z,31.49
2017-03-18T12:51:01.225Z,31.59
2017-03-18T12:52:11.206Z,31.59
2017-03-18T12:53:21.467Z,31.49
2017-03-18T12:54:31.421Z,31.88
2017-03-18T12:55:41.054Z,31.88
2017-03-18T12:56:51.307Z,31.78
2017-03-18T12:58:01.563Z,31.78
2017-03-18T12:59:11.516Z,31.59
2017-03-18T13:00:21.784Z,32.07
2017-03-18T13:01:31.734Z,31.88
2017-03-18T13:02:41.054Z,31.88
2017-03-18T13:03:51.320Z,31.88
2017-03-18T13:05:00.978Z,31.88
2017-03-18T13:06:10.610Z,31.88
2017-03-18T13:07:20.253Z,31.59
2017-03-18T13:08:29.886Z,31.98
2017-03-18T13:09:39.520Z,32.26
2017-03-18T13:10:49.777Z,32.17
2017-03-18T13:11:59.732Z,32.46
2017-03-18T13:13:10.006Z,32.36
2017-03-18T13:14:20.276Z,32.26
2017-03-18T13:15:30.223Z,32.26
2017-03-18T13:16:39.543Z,32.56
2017-03-18T13:17:49.815Z,32.36
2017-03-18T13:19:00.079Z,32.36
2017-03-18T13:20:10.330Z,32.65
2017-03-18T13:21:20.581Z,32.56
2017-03-18T13:22:30.522Z,32.46
2017-03-18T13:23:40.781Z,32.36
2017-03-18T13:24:50.732Z,32.36
2017-03-18T13:26:00.990Z,31.98
2017-03-18T13:27:10.617Z,32.17
2017-03-18T13:28:20.565Z,31.88
2017-03-18T13:29:30.514Z,31.78
2017-03-18T13:30:40.456Z,32.56
2017-03-18T13:31:50.086Z,32.18
2017-03-18T13:32:59.719Z,32.67
2017-03-18T13:34:09.357Z,32.76
2017-03-18T13:35:18.998Z,33.03
2017-03-18T13:36:29.253Z,32.94
2017-03-18T13:37:39.511Z,33.13
2017-03-18T13:38:48.831Z,32.94
2017-03-18T13:39:59.092Z,32.56
2017-03-18T13:41:09.042Z,32.75
2017-03-18T13:42:18.983Z,32.57
2017-03-18T13:43:29.247Z,32.47
2017-03-18T13:44:39.202Z,32.67
2017-03-18T13:45:48.830Z,32.46
2017-03-18T13:46:59.086Z,32.94
2017-03-18T13:48:08.748Z,32.67
2017-03-18T13:49:19.026Z,33.44
2017-03-18T13:50:29.299Z,32.76
2017-03-18T13:51:39.244Z,32.86
2017-03-18T13:52:48.561Z,32.76
2017-03-18T13:53:58.827Z,32.47
2017-03-18T13:55:09.092Z,32.38
2017-03-18T13:56:19.037Z,32.28
2017-03-18T13:57:29.294Z,31.99
2017-03-18T13:58:39.560Z,32.18
2017-03-18T13:59:49.505Z,32.09
2017-03-18T14:00:59.447Z,32.09
2017-03-18T14:02:09.703Z,31.99
2017-03-18T14:03:19.658Z,31.99
2017-03-18T14:04:29.292Z,31.8
2017-03-18T14:05:39.550Z,31.8
2017-03-18T14:06:49.497Z,31.8
2017-03-18T14:07:58.824Z,31.9
2017-03-18T14:09:08.780Z,31.7
2017-03-18T14:10:18.411Z,31.8
2017-03-18T14:11:28.365Z,31.9
2017-03-18T14:12:38.004Z,31.8
2017-03-18T14:13:48.269Z,31.6
2017-03-18T14:14:58.223Z,31.6
2017-03-18T14:16:07.853Z,31.32
2017-03-18T14:17:17.804Z,31.41
2017-03-18T14:18:27.119Z,31.6
2017-03-18T14:19:37.067Z,31.32
2017-03-18T14:20:47.012Z,31.51
2017-03-18T14:21:56.648Z,31.51
2017-03-18T14:23:05.976Z,31.6
2017-03-18T14:24:15.925Z,31.9
2017-03-18T14:25:26.194Z,31.41
2017-03-18T14:26:36.136Z,31.03
2017-03-18T14:27:46.085Z,31.32
2017-03-18T14:28:56.071Z,31.22
2017-03-18T14:30:06.016Z,31.32
2017-03-18T14:31:15.963Z,31.32
2017-03-18T14:32:25.596Z,31.32
2017-03-18T14:33:35.855Z,31.8
2017-03-18T14:34:46.120Z,31.51
2017-03-18T14:35:55.757Z,31.51
2017-03-18T14:37:05.701Z,31.12
2017-03-18T14:38:15.966Z,31.22
2017-03-18T14:39:26.227Z,30.93
2017-03-18T14:40:36.167Z,31.12
2017-03-18T14:41:45.799Z,30.93
2017-03-18T14:42:55.429Z,30.83
2017-03-18T14:44:05.071Z,30.83
2017-03-18T14:45:15.341Z,30.83
2017-03-18T14:46:24.970Z,30.64
2017-03-18T14:47:34.288Z,30.64
2017-03-18T14:48:44.546Z,30.83
2017-03-18T14:49:53.868Z,30.93
2017-03-18T14:51:03.833Z,30.93
2017-03-18T14:52:13.464Z,30.83
2017-03-18T14:53:23.727Z,30.93
2017-03-18T14:54:33.991Z,30.93
2017-03-18T14:55:43.940Z,30.83
2017-03-18T14:56:54.102Z,30.93
2017-03-18T14:58:04.309Z,31.03
2017-03-18T14:59:14.923Z,30.55
2017-03-18T15:00:25.918Z,30.55
2017-03-18T15:01:36.630Z,30.64